Time;durP1;ratioP1;P1;durP2;ratioP2;P2;SDS_P1;SDS_P2;PMS_P1;PMS_P2;Temp;Humidity;BMP_temperature;BMP_pressure;BME280_temperature;BME280_humidity;BME280_pressure;Samples;Min_cycle;Max_cycle;Signal;HPM_P1;HPM_P2
2022/04/05 00:03:11;;;;;;;9.03;8.10;;;;;;;10.98;45.00;99252.41;10329619;28;20469;-83
2022/04/05 00:08:16;;;;;;;9.90;8.90;;;;;;;10.92;45.39;99251.09;10345489;28;20323;-83
2022/04/05 00:13:18;;;;;;;10.80;9.30;;;;;;;12.33;42.14;99240.25;10351686;28;20213;-81
2022/04/05 00:18:21;;;;;;;9.73;8.73;;;;;;;11.21;44.95;99246.72;10337277;28;20213;-87
2022/04/05 00:23:23;;;;;;;9.90;8.70;;;;;;;11.31;44.74;99244.09;10289613;28;20297;-81
2022/04/05 00:28:26;;;;;;;10.63;9.53;;;;;;;11.29;44.36;99259.81;10296596;28;20278;-88
2022/04/05 00:33:28;;;;;;;9.47;8.47;;;;;;;12.56;41.79;99240.94;10295165;28;20211;-82
2022/04/05 00:38:31;;;;;;;11.77;9.87;;;;;;;12.91;41.19;99232.00;10319817;28;20225;-82
2022/04/05 00:43:33;;;;;;;11.87;10.67;;;;;;;11.91;43.42;99232.81;10318459;28;20209;-83
2022/04/05 00:48:56;;;;;;;12.10;10.77;;;;;;;11.66;44.15;99243.81;10335131;28;20578;-84
2022/04/05 00:54:04;;;;;;;13.13;11.70;;;;;;;11.92;44.01;99236.47;10334422;28;20201;-88
2022/04/05 00:59:07;;;;;;;14.07;11.83;;;;;;;10.86;46.25;99242.13;10335184;28;20190;-82
2022/04/05 01:04:11;;;;;;;13.07;11.43;;;;;;;11.67;44.02;99244.63;10334513;28;20197;-82
2022/04/05 01:09:14;;;;;;;13.77;11.70;;;;;;;11.99;43.14;99242.25;10310626;28;20546;-81
2022/04/05 01:14:16;;;;;;;14.03;11.87;;;;;;;12.04;43.43;99254.03;10298059;28;20258;-85
2022/04/05 01:19:18;;;;;;;14.93;12.87;;;;;;;11.78;43.82;99256.94;10294815;28;20262;-82
2022/04/05 01:24:21;;;;;;;13.57;11.67;;;;;;;12.00;43.61;99261.69;10268376;28;20215;-81
2022/04/05 01:29:26;;;;;;;16.47;14.03;;;;;;;11.49;45.76;99282.00;10269297;28;20195;-81
2022/04/05 01:34:29;;;;;;;14.63;12.17;;;;;;;10.16;47.58;99306.50;10269171;28;20196;-86
2022/04/05 01:39:33;;;;;;;4.77;4.30;;;;;;;10.79;46.26;99313.47;10253236;29;20320;-88
2022/04/05 01:44:36;;;;;;;3.10;2.80;;;;;;;11.65;42.66;99306.50;10252331;28;20215;-83
2022/04/05 01:49:40;;;;;;;2.80;2.53;;;;;;;11.89;42.81;99316.56;10237972;29;20188;-85
2022/04/05 01:54:42;;;;;;;0.97;0.93;;;;;;;11.95;41.99;99326.34;10258455;28;20218;-82
2022/04/05 01:59:44;;;;;;;1.60;1.50;;;;;;;11.39;42.59;99332.78;10321734;28;20260;-84
2022/04/05 02:04:46;;;;;;;0.80;0.67;;;;;;;9.55;46.99;99352.25;10338325;28;20198;-82
2022/04/05 02:09:50;;;;;;;0.70;0.70;;;;;;;11.07;43.56;99341.47;10338922;28;20214;-83
2022/04/05 02:14:53;;;;;;;0.30;0.30;;;;;;;11.23;42.73;99338.53;10332570;28;20497;-82
2022/04/05 02:20:03;;;;;;;1.23;0.60;;;;;;;11.69;42.32;99332.84;10306610;28;20526;-83
2022/04/05 02:25:07;;;;;;;3.30;0.60;;;;;;;11.82;41.75;99340.75;10302969;28;20233;-82
2022/04/05 02:30:14;;;;;;;0.40;0.40;;;;;;;12.44;40.51;99343.25;10335543;28;20202;-82
2022/04/05 02:35:18;;;;;;;1.20;0.93;;;;;;;13.13;38.46;99333.16;10335081;28;20197;-88
2022/04/05 02:40:22;;;;;;;0.80;0.70;;;;;;;12.75;39.71;99348.50;10352444;28;20264;-88
2022/04/05 02:45:28;;;;;;;0.70;0.70;;;;;;;13.17;38.41;99341.69;10330120;28;20344;-82
2022/04/05 02:50:30;;;;;;;1.07;1.07;;;;;;;13.68;37.70;99343.81;10296430;28;20261;-82
2022/04/05 02:55:33;;;;;;;2.40;1.50;;;;;;;13.83;37.24;99345.53;10322620;28;20201;-85
2022/04/05 03:00:37;;;;;;;2.93;2.40;;;;;;;13.97;36.92;99348.50;10324370;28;20210;-85
2022/04/05 03:05:45;;;;;;;5.90;3.40;;;;;;;13.60;37.60;99354.25;10272889;28;20309;-83
2022/04/05 03:10:49;;;;;;;3.50;2.83;;;;;;;13.51;38.16;99354.59;10292113;28;20214;-83
2022/04/05 03:15:53;;;;;;;3.83;2.47;;;;;;;13.29;38.58;99355.59;10304154;28;20222;-83
2022/04/05 03:20:57;;;;;;;2.90;2.47;;;;;;;13.57;37.50;99358.72;10284476;28;1036861;-82
2022/04/05 03:25:59;;;;;;;2.40;2.17;;;;;;;13.54;37.81;99358.66;10304100;28;20334;-87
2022/04/05 03:31:04;;;;;;;3.83;1.80;;;;;;;13.28;38.21;99359.66;10294858;28;20265;-82
2022/04/05 03:36:07;;;;;;;1.87;1.73;;;;;;;13.31;38.22;99358.88;10328828;28;20189;-81
2022/04/05 03:41:11;;;;;;;2.30;1.73;;;;;;;13.37;38.08;99351.63;10345471;28;20210;-84
2022/04/05 03:46:16;;;;;;;2.50;2.30;;;;;;;13.78;37.06;99348.75;10332614;28;20221;-81
2022/04/05 03:51:21;;;;;;;3.53;3.23;;;;;;;13.52;37.74;99350.53;10319412;28;20488;-86
2022/04/05 03:56:30;;;;;;;4.90;3.43;;;;;;;13.61;37.42;99351.03;10329842;28;20273;-83
2022/04/05 04:01:36;;;;;;;3.63;3.33;;;;;;;13.59;38.01;99364.00;10302109;28;20211;-83
2022/04/05 04:06:39;;;;;;;4.47;3.70;;;;;;;13.65;37.64;99356.75;10279225;28;20230;-81
2022/04/05 04:11:44;;;;;;;4.47;2.80;;;;;;;13.12;38.39;99362.72;10288404;28;20531;-80
2022/04/05 04:16:48;;;;;;;3.20;2.90;;;;;;;12.80;39.08;99356.69;10307669;28;20233;-82
2022/04/05 04:21:50;;;;;;;5.43;3.67;;;;;;;12.94;39.19;99355.25;10308065;28;20570;-80
2022/04/05 04:26:53;;;;;;;4.83;3.73;;;;;;;13.39;38.27;99360.56;10321585;28;20273;-80
2022/04/05 04:31:55;;;;;;;8.13;4.93;;;;;;;13.47;37.83;99359.41;10319738;28;20253;-82
2022/04/05 04:37:01;;;;;;;10.00;5.73;;;;;;;13.04;39.01;99369.53;10314903;28;20603;-81
2022/04/05 04:42:06;;;;;;;7.93;5.27;;;;;;;12.88;38.78;99366.94;10285351;28;20277;-80
2022/04/05 04:47:08;;;;;;;8.53;5.53;;;;;;;12.98;39.11;99373.09;10326833;28;20233;-80
2022/04/05 04:52:10;;;;;;;7.37;5.80;;;;;;;12.64;39.58;99381.59;10334445;28;20198;-83
2022/04/05 04:57:13;;;;;;;8.97;6.53;;;;;;;13.05;39.08;99371.19;10338560;28;20190;-81
2022/04/05 05:02:15;;;;;;;8.60;7.27;;;;;;;12.45;39.52;99385.38;10328395;28;20615;-84
2022/04/05 05:07:18;;;;;;;9.50;7.23;;;;;;;12.58;40.21;99383.13;10306808;28;20251;-84
2022/04/05 05:12:21;;;;;;;12.43;7.83;;;;;;;12.72;39.74;99369.13;10308189;28;20206;-82
2022/04/05 05:17:23;;;;;;;9.90;7.73;;;;;;;13.08;39.28;99370.38;10333260;28;20218;-82
2022/04/05 05:22:25;;;;;;;12.50;8.60;;;;;;;13.57;38.12;99372.09;10340892;28;20250;-82
2022/04/05 05:27:28;;;;;;;13.43;9.63;;;;;;;12.99;38.96;99369.88;10340845;28;20623;-82
2022/04/05 05:32:30;;;;;;;13.27;9.30;;;;;;;13.54;37.96;99378.53;10340135;28;20206;-82
2022/04/05 05:37:32;;;;;;;14.40;9.63;;;;;;;12.51;40.21;99380.22;10340356;28;20198;-82
2022/04/05 05:42:51;;;;;;;14.27;9.60;;;;;;;12.89;39.15;99382.75;10326107;28;20253;-83
2022/04/05 05:47:54;;;;;;;13.10;10.10;;;;;;;13.51;37.88;99382.16;10321892;28;20562;-82
2022/04/05 05:59:45;;;;;;;17.27;10.03;;;;;;;13.01;39.35;99387.34;10311925;28;20193;-82
2022/04/05 06:04:52;;;;;;;15.30;10.10;;;;;;;13.58;38.30;99388.75;10294726;28;20273;-82
2022/04/05 06:09:54;;;;;;;13.83;9.80;;;;;;;13.67;38.27;99388.44;10325468;28;20273;-82
2022/04/05 06:14:56;;;;;;;12.90;9.83;;;;;;;13.78;38.10;99388.50;10333005;28;20218;-81
2022/04/05 06:19:59;;;;;;;17.70;10.37;;;;;;;13.64;38.46;99394.06;10318068;28;20280;-83
2022/04/05 06:25:01;;;;;;;11.37;8.87;;;;;;;13.22;38.96;99396.06;10300042;28;20548;-82
2022/04/05 06:30:04;;;;;;;11.50;9.10;;;;;;;12.83;40.21;99403.28;10308701;28;20254;-83
2022/04/05 06:35:08;;;;;;;14.30;9.97;;;;;;;14.00;37.74;99398.81;10301237;28;20226;-83
2022/04/05 06:40:14;;;;;;;12.63;9.30;;;;;;;13.30;39.16;99402.66;10286733;28;20479;-83
2022/04/05 06:45:19;;;;;;;14.60;9.13;;;;;;;13.04;40.16;99408.44;10314257;28;20242;-83
2022/04/05 06:50:24;;;;;;;11.23;8.77;;;;;;;13.70;38.75;99404.69;10298909;28;20238;-83
2022/04/05 06:55:27;;;;;;;11.47;8.93;;;;;;;13.91;38.02;99406.88;10299651;28;20202;-82
2022/04/05 07:00:29;;;;;;;11.70;8.30;;;;;;;13.07;39.67;99404.84;10318312;28;20615;-83
2022/04/05 07:05:31;;;;;;;14.80;8.90;;;;;;;14.06;37.89;99400.09;10304201;28;20207;-88
2022/04/05 07:10:34;;;;;;;15.60;9.53;;;;;;;14.07;38.18;99400.91;10276259;28;20588;-83
2022/04/05 07:15:36;;;;;;;11.97;8.50;;;;;;;14.13;37.91;99400.13;10297252;28;20345;-84
2022/04/05 07:20:38;;;;;;;14.03;9.37;;;;;;;13.45;39.13;99392.25;10281724;28;20247;-83
2022/04/05 07:25:40;;;;;;;16.00;9.63;;;;;;;14.55;37.30;99382.56;10316138;28;20527;-85
2022/04/05 07:30:42;;;;;;;13.50;8.80;;;;;;;14.31;37.68;99383.22;10300951;28;20717;-84
2022/04/05 07:35:45;;;;;;;11.67;9.03;;;;;;;13.17;39.78;99387.09;10312341;28;20273;-84
2022/04/05 07:40:50;;;;;;;16.13;9.50;;;;;;;14.36;38.05;99373.53;10331866;28;20301;-86
2022/04/05 07:45:54;;;;;;;17.10;11.27;;;;;;;13.25;40.57;99383.13;10347715;28;20202;-87
2022/04/05 07:50:57;;;;;;;18.73;14.30;;;;;;;13.22;41.22;99375.38;10329092;28;20341;-88
2022/04/05 07:56:00;;;;;;;25.27;17.90;;;;;;;14.16;39.60;99388.00;10314502;28;20206;-89
2022/04/05 08:01:02;;;;;;;26.67;19.53;;;;;;;13.56;41.26;99385.47;10296212;28;20213;-88
2022/04/05 08:06:05;;;;;;;26.93;20.70;;;;;;;12.80;44.21;99389.91;10308596;28;20230;-90
2022/04/05 08:11:07;;;;;;;29.77;23.47;;;;;;;12.82;44.01;99393.97;10293422;28;20211;-89
2022/04/05 08:16:09;;;;;;;30.43;23.63;;;;;;;13.48;42.30;99380.91;10299210;28;20225;-90
2022/04/05 08:21:11;;;;;;;30.80;24.23;;;;;;;13.05;43.58;99379.69;10302770;28;20226;-90
2022/04/05 08:26:14;;;;;;;34.03;26.17;;;;;;;13.04;44.22;99388.59;10294815;28;20556;-89
2022/04/05 08:31:17;;;;;;;32.17;26.37;;;;;;;13.53;42.83;99377.72;10316766;28;20203;-84
2022/04/05 08:36:21;;;;;;;32.77;25.53;;;;;;;13.52;42.90;99387.44;10301006;28;20485;-88
2022/04/05 08:41:28;;;;;;;31.67;23.73;;;;;;;12.51;44.35;99406.53;10323756;28;20202;-89
2022/04/05 08:46:34;;;;;;;32.57;25.53;;;;;;;13.27;43.87;99397.75;10315092;28;20222;-84
2022/04/05 08:51:37;;;;;;;30.37;25.20;;;;;;;14.17;42.46;99403.03;10293469;28;20253;-87
2022/04/05 08:56:39;;;;;;;34.20;25.90;;;;;;;14.25;41.68;99402.66;10301202;28;20214;-85
2022/04/05 09:01:42;;;;;;;29.80;23.70;;;;;;;13.73;42.76;99405.94;10309387;28;20234;-86
2022/04/05 09:06:46;;;;;;;27.97;22.77;;;;;;;13.06;43.94;99409.69;10323278;28;20288;-85
2022/04/05 09:11:52;;;;;;;27.80;22.93;;;;;;;14.01;42.18;99414.66;10289647;28;20206;-82
2022/04/05 09:17:06;;;;;;;27.43;23.53;;;;;;;13.17;44.57;99412.66;10290867;28;20234;-82
2022/04/05 09:22:09;;;;;;;26.17;23.07;;;;;;;14.03;41.72;99417.94;10281966;28;20864;-84
2022/04/05 09:27:12;;;;;;;25.60;22.47;;;;;;;14.29;42.04;99414.06;10303670;28;20709;-84
2022/04/05 09:32:36;;;;;;;25.13;22.03;;;;;;;13.77;42.72;99426.66;10303095;28;20203;-88
2022/04/05 09:37:39;;;;;;;28.67;21.37;;;;;;;14.26;41.99;99427.03;10278514;28;20207;-88
2022/04/05 09:43:16;;;;;;;25.23;21.47;;;;;;;14.14;42.07;99424.50;10287318;28;20496;-84
2022/04/05 09:48:21;;;;;;;26.50;23.37;;;;;;;14.10;41.87;99428.56;10211623;28;20289;-83
2022/04/05 09:53:26;;;;;;;25.60;21.87;;;;;;;14.92;40.47;99419.28;10283971;28;20596;-90
2022/04/05 09:58:29;;;;;;;21.40;19.17;;;;;;;14.50;41.02;99419.13;10297068;28;20203;-88
2022/04/05 10:03:33;;;;;;;20.30;18.37;;;;;;;14.50;41.32;99425.63;10312743;28;20210;-90
2022/04/05 10:08:37;;;;;;;22.20;19.77;;;;;;;14.58;40.80;99427.28;10294778;28;20289;-91
2022/04/05 10:13:39;;;;;;;24.97;22.37;;;;;;;13.60;42.15;99437.44;10294240;28;20674;-89
2022/04/05 10:18:41;;;;;;;28.10;22.37;;;;;;;14.72;41.61;99431.41;10314582;28;20279;-87
2022/04/05 10:23:46;;;;;;;29.73;23.23;;;;;;;14.30;43.09;99433.56;10320754;28;20592;-87
2022/04/05 10:28:50;;;;;;;27.47;23.37;;;;;;;15.02;40.78;99435.63;10349129;28;20277;-90
2022/04/05 10:34:07;;;;;;;25.43;22.53;;;;;;;14.24;42.16;99437.19;10336663;28;20674;-82
2022/04/05 10:39:17;;;;;;;27.80;23.53;;;;;;;14.74;41.85;99440.38;10316999;28;20198;-83
2022/04/05 10:44:22;;;;;;;27.13;23.27;;;;;;;14.85;41.44;99438.38;10308500;28;20198;-86
2022/04/05 10:49:39;;;;;;;25.27;21.40;;;;;;;14.81;41.41;99434.69;10309440;28;20282;-82
2022/04/05 10:54:49;;;;;;;27.53;21.93;;;;;;;15.20;41.26;99434.88;10293138;28;20202;-85
2022/04/05 11:00:26;;;;;;;25.77;22.90;;;;;;;15.46;40.26;99430.88;10322214;28;20650;-86
2022/04/05 11:05:40;;;;;;;23.53;19.73;;;;;;;14.46;41.74;99435.34;10310178;28;20260;-84
2022/04/05 11:10:44;;;;;;;22.47;20.03;;;;;;;14.74;41.17;99426.97;10288360;28;20238;-83
2022/04/05 11:15:53;;;;;;;23.33;19.47;;;;;;;15.12;41.47;99424.69;10312897;28;20281;-88
2022/04/05 11:20:57;;;;;;;19.60;17.43;;;;;;;15.65;39.20;99417.09;10294429;28;20250;-89
2022/04/05 11:26:23;;;;;;;17.13;15.33;;;;;;;15.48;39.94;99428.44;10290127;28;20484;-84
2022/04/05 11:31:31;;;;;;;18.53;15.23;;;;;;;15.82;39.25;99409.78;10287680;28;20292;-86
2022/04/05 11:36:41;;;;;;;20.20;15.93;;;;;;;15.17;40.89;99410.06;10317359;28;20210;-87
2022/04/05 11:41:46;;;;;;;16.67;14.50;;;;;;;14.19;43.12;99426.19;10295193;28;20198;-89
2022/04/05 11:46:49;;;;;;;15.47;13.33;;;;;;;15.40;40.77;99421.94;10297754;28;20206;-88
2022/04/05 11:51:53;;;;;;;15.83;13.90;;;;;;;14.14;43.80;99435.06;10288368;28;20722;-91
2022/04/05 11:57:03;;;;;;;15.37;13.90;;;;;;;14.82;41.86;99436.34;10271767;28;20195;-90
2022/04/05 12:02:05;;;;;;;15.30;13.80;;;;;;;14.03;43.09;99429.31;10301415;28;20564;-89
2022/04/05 12:07:08;;;;;;;16.43;14.83;;;;;;;15.21;41.57;99436.50;10303893;28;20257;-88
2022/04/05 12:12:11;;;;;;;16.57;15.07;;;;;;;14.75;42.22;99436.31;10290645;28;20203;-89
2022/04/05 12:17:13;;;;;;;16.40;14.40;;;;;;;15.27;40.61;99434.91;10303939;28;20269;-89
2022/04/05 12:22:16;;;;;;;16.67;15.07;;;;;;;15.86;39.69;99424.03;10332047;28;20716;-90
2022/04/05 12:27:24;;;;;;;14.73;13.43;;;;;;;15.77;39.96;99424.44;10366712;28;20229;-89
2022/04/05 12:32:37;;;;;;;12.00;10.90;;;;;;;15.44;40.27;99434.13;10324473;28;20615;-85
2022/04/05 12:37:40;;;;;;;15.00;13.60;;;;;;;15.37;40.05;99431.28;10324267;28;20210;-90
2022/04/05 12:42:42;;;;;;;15.47;13.97;;;;;;;15.53;40.47;99428.88;10360038;28;20345;-87
2022/04/05 12:47:48;;;;;;;14.20;12.90;;;;;;;14.75;41.92;99431.44;10343956;28;20218;-90
2022/04/05 12:52:59;;;;;;;10.33;9.40;;;;;;;14.02;43.60;99432.53;10341965;28;20257;-89
2022/04/05 12:58:03;;;;;;;10.47;9.57;;;;;;;14.43;42.38;99424.75;10343801;28;20202;-87
2022/04/05 13:03:12;;;;;;;11.67;10.57;;;;;;;15.87;39.52;99425.66;10323860;28;20206;-88
2022/04/05 13:08:16;;;;;;;14.77;13.20;;;;;;;15.22;41.33;99432.44;10337152;28;20296;-84
2022/04/05 13:13:32;;;;;;;14.03;12.63;;;;;;;14.82;42.75;99431.47;10337546;28;20206;-88
2022/04/05 13:18:37;;;;;;;11.57;10.57;;;;;;;15.26;41.19;99433.28;10340136;28;21114;-88
2022/04/05 13:23:39;;;;;;;10.47;9.57;;;;;;;13.84;42.74;99450.28;10342015;28;20206;-91
2022/04/05 13:28:42;;;;;;;13.20;12.00;;;;;;;15.39;41.81;99437.38;10359984;28;20276;-88
2022/04/05 13:33:45;;;;;;;15.17;13.77;;;;;;;14.88;42.12;99437.59;10341647;28;20595;-89
2022/04/05 13:38:47;;;;;;;15.87;14.50;;;;;;;16.57;39.49;99421.16;10344279;28;20198;-89
2022/04/05 13:43:52;;;;;;;9.87;8.90;;;;;;;15.35;40.24;99423.13;10356261;28;20214;-88
2022/04/05 13:48:54;;;;;;;8.23;7.50;;;;;;;16.47;38.57;99416.25;10352319;28;20634;-83
2022/04/05 13:53:56;;;;;;;8.30;7.13;;;;;;;15.31;40.42;99425.16;10340132;28;20229;-83
2022/04/05 13:58:59;;;;;;;7.73;6.30;;;;;;;16.11;38.32;99406.94;10338532;28;20194;-82
2022/04/05 14:04:02;;;;;;;8.30;7.50;;;;;;;16.19;38.43;99400.81;10322390;28;20202;-83
2022/04/05 14:09:04;;;;;;;8.60;7.73;;;;;;;16.21;37.88;99404.06;10337275;28;20546;-82
2022/04/05 14:14:08;;;;;;;9.37;8.50;;;;;;;16.28;37.92;99386.94;10336256;28;20229;-82
2022/04/05 14:19:10;;;;;;;11.57;10.47;;;;;;;16.36;37.78;99394.25;10332009;28;20568;-82
2022/04/05 14:24:12;;;;;;;11.30;10.20;;;;;;;15.70;39.45;99398.75;10321417;28;20198;-81
2022/04/05 14:29:15;;;;;;;10.63;8.10;;;;;;;15.78;39.04;99400.44;10303698;28;20250;-83
2022/04/05 14:34:18;;;;;;;8.77;7.97;;;;;;;16.18;38.62;99387.78;10297471;28;20198;-83
2022/04/05 14:39:21;;;;;;;7.40;6.70;;;;;;;15.78;39.66;99391.06;10281241;28;20332;-83
2022/04/05 14:44:23;;;;;;;7.30;6.70;;;;;;;14.48;42.69;99395.94;10287388;28;20194;-82
2022/04/05 14:49:26;;;;;;;7.57;6.63;;;;;;;16.10;38.50;99380.44;10279623;28;20277;-83
2022/04/05 14:54:28;;;;;;;6.67;6.07;;;;;;;14.63;42.40;99391.97;10284925;28;20202;-83
2022/04/05 14:59:30;;;;;;;7.67;6.70;;;;;;;15.70;40.03;99391.03;10286519;28;20508;-82
2022/04/05 15:04:35;;;;;;;7.20;6.60;;;;;;;16.19;38.83;99371.50;10280519;28;20218;-83
2022/04/05 15:09:37;;;;;;;8.23;6.20;;;;;;;16.07;38.55;99384.09;10275084;28;20611;-84
2022/04/05 15:14:39;;;;;;;8.37;5.60;;;;;;;15.87;39.60;99382.91;10276147;28;20243;-84
2022/04/05 15:19:42;;;;;;;6.80;6.10;;;;;;;16.12;38.73;99383.72;10265918;28;20222;-84
2022/04/05 15:24:44;;;;;;;6.27;5.67;;;;;;;15.14;40.46;99391.78;10294954;28;20668;-83
2022/04/05 15:29:46;;;;;;;6.17;4.90;;;;;;;15.32;39.91;99391.78;10285434;28;20282;-83
2022/04/05 15:34:48;;;;;;;5.23;4.73;;;;;;;15.62;38.52;99389.41;10296461;28;20548;-84
2022/04/05 15:39:50;;;;;;;5.63;5.13;;;;;;;15.56;38.78;99379.63;10303742;28;20191;-83
2022/04/05 15:44:53;;;;;;;5.50;4.63;;;;;;;14.54;40.07;99380.94;10301834;28;20215;-83
2022/04/05 15:49:55;;;;;;;6.20;4.80;;;;;;;15.54;38.23;99390.63;10300810;28;20241;-85
2022/04/05 15:54:57;;;;;;;5.43;5.03;;;;;;;14.55;40.13;99404.50;10302587;28;20210;-81
2022/04/05 16:00:00;;;;;;;8.40;4.97;;;;;;;14.36;41.33;99407.66;10295050;28;20214;-83
2022/04/05 16:05:12;;;;;;;6.03;5.20;;;;;;;14.93;40.33;99398.16;10292593;28;20202;-80
2022/04/05 16:10:15;;;;;;;6.77;5.20;;;;;;;14.34;41.37;99404.38;10295049;28;20218;-81
2022/04/05 16:15:17;;;;;;;7.40;4.87;;;;;;;14.91;39.38;99396.94;10304353;28;20218;-82
2022/04/05 16:20:20;;;;;;;6.23;5.73;;;;;;;15.36;39.46;99410.53;10295842;28;20230;-82
2022/04/05 16:25:22;;;;;;;6.47;5.87;;;;;;;15.50;39.42;99389.81;10323540;28;20268;-82
2022/04/05 16:30:25;;;;;;;7.27;6.53;;;;;;;14.73;40.68;99394.03;10295043;28;20269;-86
2022/04/05 16:35:27;;;;;;;8.50;7.43;;;;;;;16.20;38.46;99391.00;10313500;28;20206;-81
2022/04/05 16:40:30;;;;;;;9.57;8.57;;;;;;;15.86;39.51;99381.28;10313333;28;20256;-83
2022/04/05 16:45:33;;;;;;;9.37;8.57;;;;;;;15.98;38.99;99383.72;10335593;28;20244;-83
2022/04/05 16:50:35;;;;;;;10.30;9.40;;;;;;;16.02;38.47;99387.38;10324877;28;20250;-83
2022/04/05 16:55:43;;;;;;;9.20;8.07;;;;;;;15.87;39.32;99382.91;10317320;28;20659;-83
2022/04/05 17:00:46;;;;;;;9.47;8.30;;;;;;;16.24;38.18;99380.44;10312358;28;20201;-83
2022/04/05 17:05:49;;;;;;;7.63;6.93;;;;;;;14.62;40.91;99399.69;10320700;28;20788;-85
2022/04/05 17:10:51;;;;;;;9.33;7.60;;;;;;;14.99;40.36;99402.25;10297073;28;20308;-83
2022/04/05 17:15:53;;;;;;;9.27;8.30;;;;;;;15.56;38.96;99387.34;10296803;28;20907;-82
2022/04/05 17:20:55;;;;;;;8.50;7.70;;;;;;;15.10;39.69;99392.97;10321023;28;20225;-83
2022/04/05 17:25:58;;;;;;;10.70;9.60;;;;;;;15.81;38.36;99391.06;10339089;28;20206;-82
2022/04/05 17:31:00;;;;;;;10.17;9.27;;;;;;;15.89;37.71;99380.47;10338892;28;20230;-85
2022/04/05 17:36:03;;;;;;;10.43;9.40;;;;;;;16.61;36.38;99384.84;10340818;28;20210;-84
2022/04/05 17:41:05;;;;;;;10.20;9.20;;;;;;;15.62;38.48;99394.28;10352925;28;20194;-88
2022/04/05 17:46:07;;;;;;;7.80;7.00;;;;;;;14.51;41.08;99395.13;10337617;28;20214;-91
2022/04/05 17:51:10;;;;;;;7.17;6.47;;;;;;;15.68;38.21;99384.09;10341706;28;20226;-88
2022/04/05 17:56:12;;;;;;;7.53;6.10;;;;;;;15.70;37.91;99382.47;10354789;28;20194;-84
2022/04/05 18:01:15;;;;;;;6.17;5.60;;;;;;;16.24;37.13;99369.03;10338380;28;20202;-84
2022/04/05 18:06:19;;;;;;;6.37;5.77;;;;;;;15.97;37.80;99377.19;10340679;28;20277;-85
2022/04/05 18:11:22;;;;;;;6.10;5.17;;;;;;;14.70;40.14;99394.00;10340934;28;20221;-83
2022/04/05 18:16:24;;;;;;;5.77;4.93;;;;;;;16.00;37.53;99376.41;10334057;28;20225;-83
2022/04/05 18:21:26;;;;;;;6.53;5.57;;;;;;;14.92;39.87;99393.69;10354292;28;20285;-86
2022/04/05 18:26:29;;;;;;;7.77;7.00;;;;;;;15.78;38.45;99388.22;10340720;28;20214;-83
2022/04/05 18:31:32;;;;;;;7.43;6.63;;;;;;;15.67;38.88;99383.31;10339798;28;20300;-83
2022/04/05 18:36:34;;;;;;;9.53;8.30;;;;;;;15.11;40.01;99391.75;10338540;28;20209;-84
2022/04/05 18:41:36;;;;;;;10.07;9.07;;;;;;;15.02;39.82;99384.38;10368173;28;20196;-82
2022/04/05 18:46:39;;;;;;;11.33;9.47;;;;;;;16.39;37.14;99382.06;10344202;28;20599;-83
2022/04/05 18:51:41;;;;;;;13.20;10.73;;;;;;;14.63;40.68;99397.66;10363934;28;20307;-81
2022/04/05 18:56:43;;;;;;;13.83;11.70;;;;;;;16.57;37.51;99387.72;10337666;28;20202;-82
2022/04/05 19:01:46;;;;;;;12.93;11.73;;;;;;;16.06;38.04;99385.38;10337254;28;20194;-82
2022/04/05 19:06:49;;;;;;;14.87;13.37;;;;;;;16.20;37.82;99393.88;10333796;28;20213;-82
2022/04/05 19:11:52;;;;;;;16.57;14.80;;;;;;;16.25;37.83;99392.66;10317875;28;20225;-82
2022/04/05 19:16:54;;;;;;;18.50;16.53;;;;;;;15.25;39.91;99403.19;10344929;28;20504;-83
2022/04/05 19:21:56;;;;;;;19.13;16.93;;;;;;;16.64;36.98;99396.25;10338071;28;20257;-82
2022/04/05 19:27:00;;;;;;;21.60;17.70;;;;;;;15.75;38.61;99411.81;10335823;28;20663;-83
2022/04/05 19:32:03;;;;;;;21.70;17.83;;;;;;;16.50;36.92;99410.56;10334443;28;20261;-83
2022/04/05 19:37:05;;;;;;;20.80;18.63;;;;;;;16.05;38.44;99413.06;10331809;28;20607;-82
2022/04/05 19:42:07;;;;;;;23.27;19.20;;;;;;;16.45;37.75;99413.03;10348772;28;20198;-82
2022/04/05 19:47:09;;;;;;;25.30;20.37;;;;;;;16.69;37.46;99409.28;10302374;28;20272;-82
2022/04/05 19:52:12;;;;;;;23.43;20.37;;;;;;;16.44;38.14;99420.78;10335604;28;20225;-82
2022/04/05 19:57:14;;;;;;;23.07;20.53;;;;;;;16.86;37.21;99416.13;10333647;28;20198;-82
2022/04/05 20:02:17;;;;;;;25.63;20.67;;;;;;;17.04;36.80;99417.72;10318725;28;20198;-83
2022/04/05 20:07:19;;;;;;;24.70;21.23;;;;;;;16.24;38.30;99425.25;10349494;28;20229;-85
2022/04/05 20:12:22;;;;;;;24.53;20.60;;;;;;;15.54;39.78;99436.22;10334321;28;20256;-82
2022/04/05 20:22:45;;;;;;;27.33;22.23;;;;;;;15.02;40.70;99431.97;10334267;28;20245;-81
2022/04/05 20:27:47;;;;;;;26.00;23.20;;;;;;;15.15;40.24;99441.00;10350239;28;20218;-84
2022/04/05 20:32:49;;;;;;;28.17;22.20;;;;;;;15.35;39.92;99428.00;10318291;28;20261;-83
2022/04/05 20:37:53;;;;;;;26.57;21.43;;;;;;;14.22;41.72;99426.22;10356985;28;20209;-82
2022/04/05 20:42:56;;;;;;;24.63;21.23;;;;;;;15.34;39.94;99420.69;10308300;28;20252;-83
2022/04/05 20:48:00;;;;;;;22.10;19.53;;;;;;;14.89;40.66;99431.50;10339857;28;20198;-83
2022/04/05 20:53:02;;;;;;;19.10;17.03;;;;;;;13.59;43.08;99427.28;10343833;28;20522;-83
2022/04/05 20:58:04;;;;;;;19.40;17.20;;;;;;;14.71;40.71;99424.09;10358149;28;20210;-83
2022/04/05 21:03:07;;;;;;;19.83;17.27;;;;;;;12.80;44.63;99430.44;10341451;28;20507;-84
2022/04/05 21:08:09;;;;;;;21.17;18.70;;;;;;;14.64;40.61;99419.16;10341576;28;20202;-82
2022/04/05 21:13:12;;;;;;;23.63;18.47;;;;;;;14.69;40.32;99415.94;10341494;28;20217;-81
2022/04/05 21:18:14;;;;;;;22.20;18.00;;;;;;;13.47;43.06;99418.25;10340961;28;20230;-81
2022/04/05 21:23:16;;;;;;;24.57;18.63;;;;;;;14.23;41.43;99405.09;10323314;28;20226;-82
2022/04/05 21:28:19;;;;;;;23.07;19.73;;;;;;;15.63;38.47;99402.44;10298627;28;20261;-81
2022/04/05 21:33:21;;;;;;;24.47;19.57;;;;;;;12.47;44.69;99410.53;10300792;28;20226;-81
2022/04/05 21:38:24;;;;;;;28.30;20.70;;;;;;;13.06;43.82;99403.22;10300010;28;20261;-82
2022/04/05 21:43:26;;;;;;;22.37;16.10;;;;;;;12.60;44.41;99409.06;10300747;28;20231;-81
2022/04/05 21:48:28;;;;;;;21.50;14.63;;;;;;;14.55;40.25;99407.34;10303447;28;20260;-81
2022/04/05 21:53:31;;;;;;;23.87;14.43;;;;;;;15.17;38.96;99395.81;10285422;28;20226;-81
2022/04/05 21:58:35;;;;;;;15.90;11.63;;;;;;;14.15;41.08;99397.72;10280917;28;20289;-82
2022/04/05 22:03:37;;;;;;;20.63;12.00;;;;;;;14.24;40.52;99394.56;10298864;28;20203;-81
2022/04/05 22:08:39;;;;;;;16.73;10.90;;;;;;;13.70;41.27;99393.34;10298771;28;20214;-82
2022/04/05 22:13:42;;;;;;;13.87;9.43;;;;;;;13.24;42.19;99392.84;10298166;28;20697;-81
2022/04/05 22:18:44;;;;;;;14.93;10.23;;;;;;;13.48;41.51;99392.28;10317955;28;20253;-81
2022/04/05 22:23:46;;;;;;;11.83;9.07;;;;;;;13.69;40.98;99388.03;10337327;28;20472;-81
2022/04/05 22:28:49;;;;;;;11.63;8.93;;;;;;;13.68;41.54;99395.75;10336972;28;20210;-81
2022/04/05 22:33:51;;;;;;;12.37;8.70;;;;;;;13.91;40.88;99389.84;10368622;28;20365;-81
2022/04/05 22:38:54;;;;;;;12.50;8.70;;;;;;;14.05;40.64;99392.78;10379302;28;20197;-81
2022/04/05 22:43:56;;;;;;;14.60;8.30;;;;;;;12.69;43.05;99400.31;10378952;28;20189;-81
2022/04/05 22:48:58;;;;;;;11.23;7.80;;;;;;;12.15;44.04;99396.72;10378687;28;20197;-81
2022/04/05 22:54:01;;;;;;;11.97;8.13;;;;;;;13.71;40.40;99388.47;10378152;28;20224;-82
2022/04/05 22:59:04;;;;;;;11.43;8.00;;;;;;;14.38;39.38;99400.31;10378038;28;20468;-84
2022/04/05 23:04:07;;;;;;;15.90;9.60;;;;;;;13.12;41.91;99396.78;10378045;28;20189;-81
2022/04/05 23:09:12;;;;;;;16.93;8.23;;;;;;;12.96;41.94;99386.84;10344512;28;20276;-81
2022/04/05 23:14:14;;;;;;;16.80;9.40;;;;;;;13.38;41.02;99389.34;10366978;28;20630;-88
2022/04/05 23:19:17;;;;;;;15.60;9.57;;;;;;;13.72;40.35;99384.44;10358402;28;20232;-81
2022/04/05 23:24:19;;;;;;;17.10;10.27;;;;;;;13.47;40.64;99384.97;10393506;28;20185;-81
2022/04/05 23:29:21;;;;;;;20.83;10.33;;;;;;;13.35;41.23;99382.41;10377406;28;20193;-81